createdAt,value
2018-02-11T00:00:01.007Z,1006.75
2018-02-11T00:01:01.017Z,1006.75
2018-02-11T00:02:01.029Z,1006.8
2018-02-11T00:03:01.041Z,1006.82
2018-02-11T00:04:01.057Z,1006.77
2018-02-11T00:05:01.076Z,1006.79
2018-02-11T00:06:01.091Z,1006.75
2018-02-11T00:07:01.107Z,1006.76
2018-02-11T00:08:01.119Z,1006.73
2018-02-11T00:09:01.124Z,1006.68
2018-02-11T00:10:01.142Z,1006.7
2018-02-11T00:11:01.181Z,1006.7
2018-02-11T00:12:01.172Z,1006.69
2018-02-11T00:13:01.182Z,1006.65
2018-02-11T00:14:01.199Z,1006.66
2018-02-11T00:16:01.220Z,1006.64
2018-02-11T00:17:01.240Z,1006.61
2018-02-11T00:18:01.255Z,1006.59
2018-02-11T00:19:01.263Z,1006.56
2018-02-11T00:20:01.284Z,1006.57
2018-02-11T00:21:01.300Z,1006.55
2018-02-11T00:22:01.306Z,1006.56
2018-02-11T00:23:01.316Z,1006.57
2018-02-11T00:24:01.339Z,1006.55
2018-02-11T00:25:01.346Z,1006.54
2018-02-11T00:26:01.358Z,1006.54
2018-02-11T00:27:01.373Z,1006.56
2018-02-11T00:28:01.392Z,1006.54
2018-02-11T00:29:01.404Z,1006.53
2018-02-11T00:30:01.420Z,1006.5
2018-02-11T00:32:01.447Z,1006.49
2018-02-11T00:33:01.458Z,1006.48
2018-02-11T00:34:01.477Z,1006.46
2018-02-11T00:35:01.491Z,1006.45
2018-02-11T00:36:01.504Z,1006.41
2018-02-11T00:37:01.516Z,1006.39
2018-02-11T00:38:01.524Z,1006.4
2018-02-11T00:39:01.542Z,1006.39
2018-02-11T00:40:01.555Z,1006.38
2018-02-11T00:41:01.579Z,1006.39
2018-02-11T00:42:01.584Z,1006.3
2018-02-11T00:43:01.599Z,1006.33
2018-02-11T00:44:01.612Z,1006.3
2018-02-11T00:45:01.626Z,1006.33
2018-02-11T00:47:01.653Z,1006.28
2018-02-11T00:48:01.666Z,1006.3
2018-02-11T00:49:01.679Z,1006.3
2018-02-11T00:50:01.693Z,1006.24
2018-02-11T00:51:01.710Z,1006.26
2018-02-11T00:52:01.721Z,1006.21
2018-02-11T00:53:01.737Z,1006.16
2018-02-11T00:54:01.751Z,1006.22
2018-02-11T00:55:01.765Z,1006.23
2018-02-11T00:56:01.816Z,1006.19
2018-02-11T00:57:01.790Z,1006.18
2018-02-11T00:58:01.803Z,1006.17
2018-02-11T00:59:01.813Z,1006.14
2018-02-11T01:00:01.834Z,1006.1
2018-02-11T01:01:01.846Z,1006.1
2018-02-11T01:02:01.859Z,1006.06
2018-02-11T01:03:01.876Z,1006.01
2018-02-11T01:04:01.882Z,1005.97
2018-02-11T01:05:01.903Z,1006
2018-02-11T01:06:01.910Z,1006
2018-02-11T01:07:01.930Z,1005.94
2018-02-11T01:08:01.942Z,1005.97
2018-02-11T01:09:01.955Z,1005.92
2018-02-11T01:10:01.969Z,1005.9
2018-02-11T01:11:01.982Z,1005.85
2018-02-11T01:12:01.997Z,1005.87
2018-02-11T01:13:02.020Z,1005.87
2018-02-11T01:14:02.025Z,1005.82
2018-02-11T01:15:02.042Z,1005.79
2018-02-11T01:16:02.054Z,1005.78
2018-02-11T01:17:02.060Z,1005.77
2018-02-11T01:19:02.094Z,1005.8
2018-02-11T01:20:02.107Z,1005.77
2018-02-11T01:21:02.115Z,1005.76
2018-02-11T01:22:02.133Z,1005.73
2018-02-11T01:23:02.151Z,1005.72
2018-02-11T01:24:02.165Z,1005.78
2018-02-11T01:25:02.178Z,1005.68
2018-02-11T01:26:02.191Z,1005.7
2018-02-11T01:27:02.202Z,1005.69
2018-02-11T01:28:02.216Z,1005.69
2018-02-11T01:29:02.235Z,1005.68
2018-02-11T01:30:02.246Z,1005.68
2018-02-11T01:31:02.260Z,1005.72
2018-02-11T01:32:02.269Z,1005.7
2018-02-11T01:33:02.288Z,1005.71
2018-02-11T01:35:02.314Z,1005.65
2018-02-11T01:36:02.328Z,1005.65
2018-02-11T01:37:02.335Z,1005.6
2018-02-11T01:38:02.355Z,1005.59
2018-02-11T01:39:02.361Z,1005.57
2018-02-11T01:40:02.378Z,1005.56
2018-02-11T01:41:02.394Z,1005.56
2018-02-11T01:42:02.410Z,1005.56
2018-02-11T01:43:02.420Z,1005.53
2018-02-11T01:44:02.435Z,1005.54
2018-02-11T01:45:02.452Z,1005.48
2018-02-11T01:46:02.462Z,1005.49
2018-02-11T01:47:02.474Z,1005.46
2018-02-11T01:48:02.485Z,1005.43
2018-02-11T01:49:02.502Z,1005.42
2018-02-11T01:51:02.529Z,1005.36
2018-02-11T01:52:02.540Z,1005.37
2018-02-11T01:53:02.559Z,1005.34
2018-02-11T01:54:02.570Z,1005.36
2018-02-11T01:55:02.581Z,1005.33
2018-02-11T01:56:02.600Z,1005.33
2018-02-11T01:57:02.614Z,1005.33
2018-02-11T01:58:02.625Z,1005.32
2018-02-11T01:59:02.634Z,1005.31
2018-02-11T02:00:02.654Z,1005.24
2018-02-11T02:01:02.663Z,1005.26
2018-02-11T02:02:02.683Z,1005.27
2018-02-11T02:03:02.691Z,1005.3
2018-02-11T02:04:02.708Z,1005.27
2018-02-11T02:05:02.723Z,1005.2
2018-02-11T02:07:02.752Z,1005.18
2018-02-11T02:08:02.768Z,1005.17
2018-02-11T02:09:02.781Z,1005.2
2018-02-11T02:10:02.790Z,1005.16
2018-02-11T02:11:02.798Z,1005.16
2018-02-11T02:12:02.813Z,1005.16
2018-02-11T02:13:02.825Z,1005.11
2018-02-11T02:14:02.846Z,1005.1
2018-02-11T02:15:02.856Z,1005.07
2018-02-11T02:16:02.869Z,1005.04
2018-02-11T02:17:02.884Z,1005.02
2018-02-11T02:18:02.898Z,1004.97
2018-02-11T02:19:02.918Z,1004.96
2018-02-11T02:20:02.924Z,1004.96
2018-02-11T02:22:02.957Z,1004.94
2018-02-11T02:23:02.966Z,1004.92
2018-02-11T02:24:02.990Z,1004.91
2018-02-11T02:25:02.991Z,1004.89
2018-02-11T02:26:03.009Z,1004.89
2018-02-11T02:27:03.024Z,1004.92
2018-02-11T02:28:03.038Z,1004.86
2018-02-11T02:29:03.047Z,1004.87
2018-02-11T02:30:03.062Z,1004.81
2018-02-11T02:31:03.077Z,1004.8
2018-02-11T02:32:03.086Z,1004.8
2018-02-11T02:33:03.104Z,1004.8
2018-02-11T02:34:03.117Z,1004.76
2018-02-11T02:35:03.132Z,1004.79
2018-02-11T02:36:03.143Z,1004.73
2018-02-11T02:37:03.155Z,1004.74
2018-02-11T02:38:03.167Z,1004.69
2018-02-11T02:39:03.181Z,1004.7
2018-02-11T02:40:03.205Z,1004.65
2018-02-11T02:41:03.213Z,1004.64
2018-02-11T02:42:03.226Z,1004.63
2018-02-11T02:43:03.242Z,1004.57
2018-02-11T02:44:03.256Z,1004.6
2018-02-11T02:45:03.268Z,1004.56
2018-02-11T02:46:03.285Z,1004.52
2018-02-11T02:47:03.296Z,1004.45
2018-02-11T02:48:03.314Z,1004.44
2018-02-11T02:49:03.317Z,1004.45
2018-02-11T02:50:03.336Z,1004.43
2018-02-11T02:51:03.345Z,1004.4
2018-02-11T02:52:03.363Z,1004.36
2018-02-11T02:54:03.388Z,1004.32
2018-02-11T02:55:03.409Z,1004.3
2018-02-11T02:56:03.415Z,1004.26
2018-02-11T02:57:03.429Z,1004.26
2018-02-11T02:58:03.447Z,1004.21
2018-02-11T02:59:03.461Z,1004.23
2018-02-11T03:00:03.470Z,1004.16
2018-02-11T03:01:03.483Z,1004.16
2018-02-11T03:02:03.493Z,1004.18
2018-02-11T03:03:03.510Z,1004.24
2018-02-11T03:04:03.527Z,1004.22
2018-02-11T03:05:03.541Z,1004.24
2018-02-11T03:06:03.558Z,1004.27
2018-02-11T03:07:03.564Z,1004.24
2018-02-11T03:08:03.583Z,1004.25
2018-02-11T03:10:03.604Z,1004.24
2018-02-11T03:11:03.618Z,1004.17
2018-02-11T03:12:03.633Z,1004.18
2018-02-11T03:13:03.652Z,1004.15
2018-02-11T03:14:03.665Z,1004.17
2018-02-11T03:15:03.677Z,1004.19
2018-02-11T03:16:03.689Z,1004.21
2018-02-11T03:17:03.702Z,1004.22
2018-02-11T03:18:03.719Z,1004.17
2018-02-11T03:19:03.727Z,1004.17
2018-02-11T03:20:03.746Z,1004.19
2018-02-11T03:21:03.756Z,1004.17
2018-02-11T03:22:03.765Z,1004.11
2018-02-11T03:23:03.793Z,1004.04
2018-02-11T03:24:03.797Z,1003.96
2018-02-11T03:26:03.824Z,1003.95
2018-02-11T03:27:03.837Z,1004.02
2018-02-11T03:28:03.849Z,1004.05
2018-02-11T03:29:03.866Z,1004.04
2018-02-11T03:30:03.881Z,1004
2018-02-11T03:31:03.889Z,1003.99
2018-02-11T03:32:03.909Z,1003.96
2018-02-11T03:33:03.913Z,1003.98
2018-02-11T03:34:03.933Z,1003.96
2018-02-11T03:35:03.940Z,1003.91
2018-02-11T03:36:03.955Z,1003.9
2018-02-11T03:37:03.969Z,1003.89
2018-02-11T03:38:03.982Z,1003.86
2018-02-11T03:39:04.001Z,1003.84
2018-02-11T03:40:04.010Z,1003.86
2018-02-11T03:42:04.037Z,1003.83
2018-02-11T03:43:04.059Z,1003.77
2018-02-11T03:44:04.070Z,1003.78
2018-02-11T03:45:04.079Z,1003.78
2018-02-11T03:46:04.091Z,1003.71
2018-02-11T03:47:04.105Z,1003.7
2018-02-11T03:48:04.128Z,1003.68
2018-02-11T03:49:04.131Z,1003.69
2018-02-11T03:50:04.191Z,1003.65
2018-02-11T03:51:04.160Z,1003.62
2018-02-11T03:52:04.174Z,1003.57
2018-02-11T03:53:04.187Z,1003.54
2018-02-11T03:54:04.201Z,1003.55
2018-02-11T03:55:04.216Z,1003.49
2018-02-11T03:57:04.245Z,1003.48
2018-02-11T03:58:04.256Z,1003.43
2018-02-11T03:59:04.278Z,1003.41
2018-02-11T04:00:04.279Z,1003.41
2018-02-11T04:01:04.298Z,1003.44
2018-02-11T04:02:04.307Z,1003.43
2018-02-11T04:03:04.323Z,1003.4
2018-02-11T04:04:04.338Z,1003.39
2018-02-11T04:05:04.354Z,1003.38
2018-02-11T04:06:04.365Z,1003.36
2018-02-11T04:07:04.375Z,1003.34
2018-02-11T04:08:04.390Z,1003.34
2018-02-11T04:09:04.404Z,1003.31
2018-02-11T04:10:04.414Z,1003.29
2018-02-11T04:11:04.435Z,1003.23
2018-02-11T04:12:04.447Z,1003.27
2018-02-11T04:13:04.460Z,1003.27
2018-02-11T04:14:04.474Z,1003.26
2018-02-11T04:15:04.487Z,1003.25
2018-02-11T04:16:04.603Z,1003.24
2018-02-11T04:17:04.509Z,1003.26
2018-02-11T04:18:04.526Z,1003.23
2018-02-11T04:19:04.540Z,1003.2
2018-02-11T04:20:04.555Z,1003.2
2018-02-11T04:21:04.565Z,1003.21
2018-02-11T04:22:04.581Z,1003.15
2018-02-11T04:23:04.591Z,1003.19
2018-02-11T04:24:04.607Z,1003.16
2018-02-11T04:25:04.624Z,1003.13
2018-02-11T04:26:04.643Z,1003.11
2018-02-11T04:27:04.649Z,1003.12
2018-02-11T04:29:04.677Z,1003.08
2018-02-11T04:30:04.686Z,1003.08
2018-02-11T04:31:04.704Z,1003.06
2018-02-11T04:32:04.713Z,1003.09
2018-02-11T04:33:04.728Z,1003.07
2018-02-11T04:34:04.738Z,1003.03
2018-02-11T04:35:04.750Z,1003.01
2018-02-11T04:36:04.770Z,1003.01
2018-02-11T04:37:04.778Z,1002.95
2018-02-11T04:38:04.795Z,1002.96
2018-02-11T04:39:04.804Z,1002.94
2018-02-11T04:40:04.820Z,1002.93
2018-02-11T04:41:04.842Z,1002.9
2018-02-11T04:42:04.844Z,1002.87
2018-02-11T04:43:04.870Z,1002.91
2018-02-11T04:45:04.888Z,1002.87
2018-02-11T04:46:04.905Z,1002.85
2018-02-11T04:47:04.917Z,1002.83
2018-02-11T04:48:04.930Z,1002.83
2018-02-11T04:49:04.943Z,1002.86
2018-02-11T04:50:04.955Z,1002.81
2018-02-11T04:51:04.969Z,1002.88
2018-02-11T04:52:04.991Z,1002.79
2018-02-11T04:53:04.997Z,1002.77
2018-02-11T04:54:05.012Z,1002.81
2018-02-11T04:55:05.020Z,1002.78
2018-02-11T04:56:05.039Z,1002.8
2018-02-11T04:57:05.049Z,1002.77
2018-02-11T04:58:05.064Z,1002.76
2018-02-11T04:59:05.082Z,1002.76
2018-02-11T05:01:05.105Z,1002.76
2018-02-11T05:02:05.119Z,1002.78
2018-02-11T05:03:05.134Z,1002.75
2018-02-11T05:04:05.147Z,1002.75
2018-02-11T05:05:05.161Z,1002.7
2018-02-11T05:06:05.173Z,1002.72
2018-02-11T05:07:05.191Z,1002.69
2018-02-11T05:08:05.198Z,1002.64
2018-02-11T05:09:05.218Z,1002.69
2018-02-11T05:10:05.229Z,1002.66
2018-02-11T05:11:05.238Z,1002.64
2018-02-11T05:12:05.248Z,1002.62
2018-02-11T05:13:05.267Z,1002.61
2018-02-11T05:14:05.282Z,1002.61
2018-02-11T05:15:05.292Z,1002.6
2018-02-11T05:17:05.316Z,1002.6
2018-02-11T05:18:05.331Z,1002.59
2018-02-11T05:19:05.346Z,1002.54
2018-02-11T05:20:05.360Z,1002.55
2018-02-11T05:21:05.374Z,1002.5
2018-02-11T05:22:05.388Z,1002.47
2018-02-11T05:23:05.400Z,1002.52
2018-02-11T05:24:05.417Z,1002.47
2018-02-11T05:25:05.425Z,1002.48
2018-02-11T05:26:05.444Z,1002.44
2018-02-11T05:27:05.458Z,1002.45
2018-02-11T05:28:05.470Z,1002.42
2018-02-11T05:29:05.481Z,1002.41
2018-02-11T05:30:05.492Z,1002.4
2018-02-11T05:32:05.524Z,1002.33
2018-02-11T05:33:05.533Z,1002.32
2018-02-11T05:34:05.546Z,1002.26
2018-02-11T05:35:05.564Z,1002.26
2018-02-11T05:36:05.576Z,1002.29
2018-02-11T05:37:05.588Z,1002.24
2018-02-11T05:38:05.602Z,1002.23
2018-02-11T05:39:05.615Z,1002.21
2018-02-11T05:40:05.634Z,1002.17
2018-02-11T05:41:05.644Z,1002.19
2018-02-11T05:42:05.657Z,1002.21
2018-02-11T05:43:05.673Z,1002.17
2018-02-11T05:44:05.690Z,1002.14
2018-02-11T05:45:05.701Z,1002.04
2018-02-11T05:46:05.714Z,1002.04
2018-02-11T05:47:05.728Z,1002.03
2018-02-11T05:48:05.734Z,1001.98
2018-02-11T05:49:05.750Z,1001.97
2018-02-11T05:50:05.772Z,1001.93
2018-02-11T05:51:05.879Z,1001.94
2018-02-11T05:52:05.790Z,1001.89
2018-02-11T05:53:05.806Z,1001.92
2018-02-11T05:54:05.821Z,1001.9
2018-02-11T05:55:05.834Z,1001.88
2018-02-11T05:56:05.842Z,1001.86
2018-02-11T05:57:05.862Z,1001.88
2018-02-11T05:58:05.878Z,1001.87
2018-02-11T05:59:05.889Z,1001.86
2018-02-11T06:00:05.912Z,1001.85
2018-02-11T06:01:05.911Z,1001.83
2018-02-11T06:02:05.929Z,1001.78
2018-02-11T06:04:05.951Z,1001.84
2018-02-11T06:05:05.967Z,1001.82
2018-02-11T06:06:05.983Z,1001.79
2018-02-11T06:07:05.996Z,1001.8
2018-02-11T06:08:06.009Z,1001.74
2018-02-11T06:09:06.023Z,1001.78
2018-02-11T06:10:06.036Z,1001.76
2018-02-11T06:11:06.047Z,1001.7
2018-02-11T06:12:06.059Z,1001.71
2018-02-11T06:13:06.078Z,1001.69
2018-02-11T06:14:06.092Z,1001.67
2018-02-11T06:15:06.107Z,1001.68
2018-02-11T06:16:06.117Z,1001.66
2018-02-11T06:17:06.126Z,1001.66
2018-02-11T06:18:06.142Z,1001.63
2018-02-11T06:20:06.171Z,1001.63
2018-02-11T06:21:06.199Z,1001.64
2018-02-11T06:22:06.195Z,1001.61
2018-02-11T06:23:06.215Z,1001.6
2018-02-11T06:24:06.227Z,1001.59
2018-02-11T06:25:06.244Z,1001.55
2018-02-11T06:26:06.252Z,1001.55
2018-02-11T06:27:06.268Z,1001.54
2018-02-11T06:28:06.281Z,1001.57
2018-02-11T06:29:06.297Z,1001.52
2018-02-11T06:30:06.310Z,1001.54
2018-02-11T06:31:06.323Z,1001.49
2018-02-11T06:32:06.334Z,1001.53
2018-02-11T06:33:06.347Z,1001.47
2018-02-11T06:34:06.363Z,1001.48
2018-02-11T06:36:06.388Z,1001.42
2018-02-11T06:37:06.404Z,1001.49
2018-02-11T06:38:06.421Z,1001.45
2018-02-11T06:39:06.428Z,1001.42
2018-02-11T06:40:06.442Z,1001.5
2018-02-11T06:41:06.455Z,1001.44
2018-02-11T06:42:06.475Z,1001.44
2018-02-11T06:43:06.493Z,1001.48
2018-02-11T06:44:06.504Z,1001.43
2018-02-11T06:45:06.514Z,1001.42
2018-02-11T06:46:06.519Z,1001.41
2018-02-11T06:47:06.541Z,1001.39
2018-02-11T06:48:06.551Z,1001.35
2018-02-11T06:49:06.571Z,1001.35
2018-02-11T06:50:06.577Z,1001.39
2018-02-11T06:52:06.606Z,1001.33
2018-02-11T06:53:06.622Z,1001.36
2018-02-11T06:54:06.639Z,1001.33
2018-02-11T06:55:06.648Z,1001.3
2018-02-11T06:56:06.656Z,1001.27
2018-02-11T06:57:06.670Z,1001.25
2018-02-11T06:58:06.683Z,1001.29
2018-02-11T06:59:06.702Z,1001.26
2018-02-11T07:00:06.762Z,1001.21
2018-02-11T07:01:06.725Z,1001.2
2018-02-11T07:02:06.738Z,1001.23
2018-02-11T07:03:06.753Z,1001.2
2018-02-11T07:04:06.774Z,1001.23
2018-02-11T07:05:06.787Z,1001.13
2018-02-11T07:07:06.814Z,1001.25
2018-02-11T07:08:06.827Z,1001.18
2018-02-11T07:09:06.840Z,1001.14
2018-02-11T07:10:06.857Z,1001.18
2018-02-11T07:11:06.872Z,1001.17
2018-02-11T07:12:06.876Z,1001.22
2018-02-11T07:13:06.891Z,1001.18
2018-02-11T07:14:06.906Z,1001.16
2018-02-11T07:15:06.921Z,1001.16
2018-02-11T07:16:06.939Z,1001.17
2018-02-11T07:17:06.946Z,1001.16
2018-02-11T07:18:06.959Z,1001.15
2018-02-11T07:19:06.972Z,1001.19
2018-02-11T07:20:06.985Z,1001.18
2018-02-11T07:21:07.008Z,1001.17
2018-02-11T07:22:07.024Z,1001.22
2018-02-11T07:23:07.034Z,1001.13
2018-02-11T07:24:07.042Z,1001.14
2018-02-11T07:25:07.065Z,1001.14
2018-02-11T07:26:07.078Z,1001.12
2018-02-11T07:27:07.088Z,1001.1
2018-02-11T07:28:07.098Z,1001.1
2018-02-11T07:29:07.113Z,1001.16
2018-02-11T07:30:07.130Z,1001.08
2018-02-11T07:31:07.148Z,1001.05
2018-02-11T07:32:07.162Z,1000.94
2018-02-11T07:33:07.176Z,1000.87
2018-02-11T07:34:07.181Z,1000.88
2018-02-11T07:35:07.198Z,1000.89
2018-02-11T07:36:07.214Z,1000.94
2018-02-11T07:37:07.229Z,1000.91
2018-02-11T07:39:07.250Z,1000.92
2018-02-11T07:40:07.273Z,1000.9
2018-02-11T07:41:07.288Z,1000.97
2018-02-11T07:42:07.293Z,1000.98
2018-02-11T07:43:07.306Z,1000.95
2018-02-11T07:44:07.323Z,1000.94
2018-02-11T07:45:07.334Z,1000.97
2018-02-11T07:46:07.355Z,1000.95
2018-02-11T07:47:07.374Z,1000.9
2018-02-11T07:48:07.483Z,1000.91
2018-02-11T07:49:07.400Z,1000.87
2018-02-11T07:50:07.406Z,1000.86
2018-02-11T07:51:07.424Z,1000.86
2018-02-11T07:52:07.440Z,1000.85
2018-02-11T07:53:07.459Z,1000.81
2018-02-11T07:55:07.484Z,1000.88
2018-02-11T07:56:07.499Z,1000.83
2018-02-11T07:57:07.516Z,1000.8
2018-02-11T07:58:07.529Z,1000.75
2018-02-11T07:59:07.549Z,1000.76
2018-02-11T08:00:07.561Z,1000.74
2018-02-11T08:01:07.579Z,1000.77
2018-02-11T08:02:07.590Z,1000.72
2018-02-11T08:03:07.608Z,1000.7
2018-02-11T08:04:07.672Z,1000.65
2018-02-11T08:05:07.642Z,1000.61
2018-02-11T08:06:07.660Z,1000.6
2018-02-11T08:07:07.666Z,1000.6
2018-02-11T08:08:07.689Z,1000.55
2018-02-11T08:09:07.701Z,1000.54
2018-02-11T08:11:07.765Z,1000.49
2018-02-11T08:12:07.744Z,1000.47
2018-02-11T08:13:07.769Z,1000.43
2018-02-11T08:14:07.777Z,1000.42
2018-02-11T08:15:07.794Z,1000.39
2018-02-11T08:16:07.811Z,1000.36
2018-02-11T08:17:07.832Z,1000.32
2018-02-11T08:18:07.842Z,1000.34
2018-02-11T08:19:07.860Z,1000.31
2018-02-11T08:20:07.875Z,1000.28
2018-02-11T08:21:07.884Z,1000.22
2018-02-11T08:22:07.907Z,1000.24
2018-02-11T08:23:07.917Z,1000.22
2018-02-11T08:24:07.934Z,1000.17
2018-02-11T08:25:07.950Z,1000.14
2018-02-11T08:27:07.976Z,1000.16
2018-02-11T08:28:08.000Z,1000.13
2018-02-11T08:29:08.012Z,1000.07
2018-02-11T08:30:08.030Z,1000.08
2018-02-11T08:31:08.045Z,1000.1
2018-02-11T08:32:08.055Z,1000.16
2018-02-11T08:33:08.067Z,1000.12
2018-02-11T08:34:08.085Z,1000.09
2018-02-11T08:35:08.117Z,1000.11
2018-02-11T08:36:08.123Z,1000.07
2018-02-11T08:37:08.135Z,1000.07
2018-02-11T08:38:08.149Z,1000.14
2018-02-11T08:39:08.172Z,1000.09
2018-02-11T08:40:08.185Z,1000.11
2018-02-11T08:42:08.213Z,1000.08
2018-02-11T08:43:08.227Z,1000.04
2018-02-11T08:44:08.241Z,1000.05
2018-02-11T08:45:08.258Z,999.95
2018-02-11T08:46:08.276Z,999.95
2018-02-11T08:47:08.290Z,999.99
2018-02-11T08:48:08.310Z,999.96
2018-02-11T08:49:08.320Z,999.94
2018-02-11T08:50:08.342Z,999.91
2018-02-11T08:51:08.362Z,999.92
2018-02-11T08:52:08.374Z,999.87
2018-02-11T08:53:08.388Z,999.83
2018-02-11T08:54:08.402Z,999.82
2018-02-11T08:55:08.421Z,999.78
2018-02-11T08:56:08.434Z,999.76
2018-02-11T08:57:08.451Z,999.76
2018-02-11T08:58:08.471Z,999.7
2018-02-11T08:59:08.485Z,999.71
2018-02-11T09:00:08.500Z,999.65
2018-02-11T09:01:08.516Z,999.65
2018-02-11T09:02:08.531Z,999.63
2018-02-11T09:03:08.549Z,999.64
2018-02-11T09:04:08.562Z,999.58
2018-02-11T09:05:08.579Z,999.57
2018-02-11T09:06:08.606Z,999.52
2018-02-11T09:07:08.648Z,999.49
2018-02-11T09:08:08.620Z,999.45
2018-02-11T09:09:08.643Z,999.43
2018-02-11T09:10:08.661Z,999.42
2018-02-11T09:11:08.670Z,999.45
2018-02-11T09:12:08.698Z,999.46
2018-02-11T09:14:08.718Z,999.36
2018-02-11T09:15:08.737Z,999.37
2018-02-11T09:16:08.750Z,999.3
2018-02-11T09:17:08.764Z,999.27
2018-02-11T09:18:08.778Z,999.32
2018-02-11T09:19:08.796Z,999.31
2018-02-11T09:20:08.813Z,999.29
2018-02-11T09:21:08.828Z,999.28
2018-02-11T09:22:08.844Z,999.3
2018-02-11T09:23:08.860Z,999.29
2018-02-11T09:24:08.875Z,999.27
2018-02-11T09:25:08.894Z,999.17
2018-02-11T09:26:08.904Z,999.12
2018-02-11T09:27:08.926Z,999.16
2018-02-11T09:28:08.940Z,999.2
2018-02-11T09:30:08.973Z,999.1
2018-02-11T09:31:08.986Z,999.04
2018-02-11T09:32:09.007Z,999.05
2018-02-11T09:33:09.016Z,999
2018-02-11T09:34:09.030Z,999.02
2018-02-11T09:35:09.051Z,999.02
2018-02-11T09:36:09.063Z,998.98
2018-02-11T09:37:09.089Z,998.98
2018-02-11T09:38:09.097Z,998.9
2018-02-11T09:39:09.115Z,998.86
2018-02-11T09:40:09.134Z,998.88
2018-02-11T09:41:09.148Z,998.85
2018-02-11T09:42:09.162Z,998.87
2018-02-11T09:43:09.179Z,998.88
2018-02-11T09:44:09.198Z,998.76
2018-02-11T09:46:09.228Z,998.71
2018-02-11T09:47:09.243Z,998.73
2018-02-11T09:48:09.260Z,998.7
2018-02-11T09:49:09.277Z,998.7
2018-02-11T09:50:09.291Z,998.71
2018-02-11T09:51:09.305Z,998.68
2018-02-11T09:52:09.323Z,998.69
2018-02-11T09:53:09.339Z,998.68
2018-02-11T09:54:09.351Z,998.64
2018-02-11T09:55:09.370Z,998.63
2018-02-11T09:56:09.387Z,998.52
2018-02-11T09:57:09.408Z,998.52
2018-02-11T09:58:09.424Z,998.53
2018-02-11T09:59:09.437Z,998.46
2018-02-11T10:00:09.456Z,998.45
2018-02-11T10:02:09.486Z,998.42
2018-02-11T10:03:09.509Z,998.39
2018-02-11T10:04:09.516Z,998.42
2018-02-11T10:05:09.537Z,998.41
2018-02-11T10:06:09.554Z,998.35
2018-02-11T10:07:09.570Z,998.35
2018-02-11T10:08:09.586Z,998.35
2018-02-11T10:09:09.601Z,998.27
2018-02-11T10:10:09.621Z,998.3
2018-02-11T10:11:09.635Z,998.28
2018-02-11T10:12:09.649Z,998.27
2018-02-11T10:13:09.672Z,998.26
2018-02-11T10:14:09.683Z,998.16
2018-02-11T10:15:09.705Z,998.26
2018-02-11T10:17:09.732Z,998.21
2018-02-11T10:18:09.752Z,998.2
2018-02-11T10:19:09.764Z,998.2
2018-02-11T10:20:09.785Z,998.14
2018-02-11T10:21:09.799Z,998.16
2018-02-11T10:22:09.814Z,998.2
2018-02-11T10:23:09.832Z,998.15
2018-02-11T10:24:09.847Z,998.19
2018-02-11T10:25:09.865Z,998.1
2018-02-11T10:26:09.881Z,998.08
2018-02-11T10:27:09.899Z,998.05
2018-02-11T10:28:09.913Z,998.02
2018-02-11T10:29:09.935Z,997.96
2018-02-11T10:30:09.945Z,997.99
2018-02-11T10:31:09.963Z,998.01
2018-02-11T10:32:09.978Z,998.01
2018-02-11T10:33:10.001Z,997.96
2018-02-11T10:34:10.011Z,997.98
2018-02-11T10:35:10.029Z,998
2018-02-11T10:36:10.041Z,997.92
2018-02-11T10:37:10.065Z,997.98
2018-02-11T10:38:10.078Z,997.86
2018-02-11T10:39:10.101Z,998.02
2018-02-11T10:40:10.119Z,997.94
2018-02-11T10:41:10.128Z,997.89
2018-02-11T10:42:10.146Z,997.85
2018-02-11T10:43:10.163Z,997.79
2018-02-11T10:44:10.185Z,997.89
2018-02-11T10:45:10.198Z,997.89
2018-02-11T10:46:10.216Z,997.86
2018-02-11T10:47:10.232Z,997.87
2018-02-11T10:49:10.265Z,997.81
2018-02-11T10:50:10.283Z,997.8
2018-02-11T10:51:10.302Z,997.8
2018-02-11T10:52:10.316Z,997.78
2018-02-11T10:53:10.335Z,997.7
2018-02-11T10:54:10.349Z,997.71
2018-02-11T10:55:10.363Z,997.72
2018-02-11T10:56:10.384Z,997.74
2018-02-11T10:57:10.398Z,997.67
2018-02-11T10:58:10.416Z,997.71
2018-02-11T10:59:10.433Z,997.69
2018-02-11T11:00:10.452Z,997.76
2018-02-11T11:01:10.476Z,997.7
2018-02-11T11:02:10.486Z,997.55
2018-02-11T11:03:10.502Z,997.6
2018-02-11T11:05:10.537Z,997.67
2018-02-11T11:06:10.554Z,997.57
2018-02-11T11:07:10.572Z,997.59
2018-02-11T11:08:10.586Z,997.58
2018-02-11T11:09:10.611Z,997.56
2018-02-11T11:10:10.623Z,997.51
2018-02-11T11:11:10.644Z,997.54
2018-02-11T11:12:10.658Z,997.49
2018-02-11T11:13:10.676Z,997.49
2018-02-11T11:14:10.695Z,997.5
2018-02-11T11:15:10.710Z,997.51
2018-02-11T11:16:10.726Z,997.59
2018-02-11T11:17:10.743Z,997.55
2018-02-11T11:18:10.758Z,997.47
2018-02-11T11:19:10.783Z,997.55
2018-02-11T11:21:10.814Z,997.5
2018-02-11T11:22:10.833Z,997.47
2018-02-11T11:23:10.848Z,997.64
2018-02-11T11:24:10.866Z,997.55
2018-02-11T11:25:10.881Z,997.48
2018-02-11T11:26:10.896Z,997.56
2018-02-11T11:27:10.920Z,997.5
2018-02-11T11:28:10.936Z,997.44
2018-02-11T11:29:10.951Z,997.44
2018-02-11T11:30:10.962Z,997.55
2018-02-11T11:31:10.982Z,997.49
2018-02-11T11:32:11.004Z,997.46
2018-02-11T11:33:11.014Z,997.39
2018-02-11T11:34:11.031Z,997.4
2018-02-11T11:35:11.052Z,997.4
2018-02-11T11:37:11.087Z,997.36
2018-02-11T11:38:11.102Z,997.42
2018-02-11T11:39:11.117Z,997.37
2018-02-11T11:40:11.132Z,997.34
2018-02-11T11:41:11.154Z,997.41
2018-02-11T11:42:11.165Z,997.39
2018-02-11T11:43:11.181Z,997.35
2018-02-11T11:44:11.207Z,997.39
2018-02-11T11:45:11.218Z,997.37
2018-02-11T11:46:11.235Z,997.34
2018-02-11T11:47:11.252Z,997.35
2018-02-11T11:48:11.264Z,997.35
2018-02-11T11:49:11.284Z,997.33
2018-02-11T11:50:11.303Z,997.34
2018-02-11T11:52:11.338Z,997.33
2018-02-11T11:53:11.351Z,997.3
2018-02-11T11:54:11.368Z,997.3
2018-02-11T11:55:11.388Z,997.26
2018-02-11T11:56:11.408Z,997.23
2018-02-11T11:57:11.415Z,997.22
2018-02-11T11:58:11.431Z,997.23
2018-02-11T11:59:11.452Z,997.19
2018-02-11T12:00:11.467Z,997.21
2018-02-11T12:01:11.485Z,997.18
2018-02-11T12:02:11.506Z,997.17
2018-02-11T12:03:11.513Z,997.2
2018-02-11T12:04:11.535Z,997.18
2018-02-11T12:05:11.549Z,997.09
2018-02-11T12:06:11.571Z,996.98
2018-02-11T12:07:11.580Z,997.23
2018-02-11T12:08:11.600Z,996.93
2018-02-11T12:09:11.616Z,997.07
2018-02-11T12:10:11.639Z,997.1
2018-02-11T12:11:11.653Z,997.07
2018-02-11T12:12:11.671Z,997.07
2018-02-11T12:13:11.721Z,997.07
2018-02-11T12:14:11.703Z,997.08
2018-02-11T12:15:11.716Z,997.05
2018-02-11T12:16:11.735Z,997.02
2018-02-11T12:17:11.749Z,997.05
2018-02-11T12:18:11.764Z,997.01
2018-02-11T12:19:11.779Z,997.03
2018-02-11T12:20:11.797Z,997
2018-02-11T12:21:11.816Z,997.01
2018-02-11T12:22:11.835Z,996.95
2018-02-11T12:24:11.872Z,996.98
2018-02-11T12:25:11.885Z,997.01
2018-02-11T12:26:11.894Z,996.99
2018-02-11T12:27:11.916Z,996.96
2018-02-11T12:28:11.938Z,996.96
2018-02-11T12:29:11.955Z,997.01
2018-02-11T12:30:11.963Z,996.96
2018-02-11T12:31:11.982Z,996.98
2018-02-11T12:32:11.998Z,996.95
2018-02-11T12:33:12.014Z,997
2018-02-11T12:34:12.033Z,996.94
2018-02-11T12:35:12.057Z,996.91
2018-02-11T12:36:12.062Z,996.95
2018-02-11T12:37:12.080Z,996.86
2018-02-11T12:38:12.098Z,996.81
2018-02-11T12:40:12.128Z,996.9
2018-02-11T12:41:12.142Z,996.8
2018-02-11T12:42:12.164Z,996.91
2018-02-11T12:43:12.185Z,996.85
2018-02-11T12:44:12.201Z,996.85
2018-02-11T12:45:12.212Z,996.85
2018-02-11T12:46:12.226Z,996.8
2018-02-11T12:47:12.247Z,996.69
2018-02-11T12:48:12.260Z,996.82
2018-02-11T12:49:12.273Z,996.75
2018-02-11T12:50:12.298Z,996.76
2018-02-11T12:51:12.309Z,996.81
2018-02-11T12:52:12.322Z,996.8
2018-02-11T12:53:12.349Z,996.77
2018-02-11T12:54:12.364Z,996.78
2018-02-11T12:56:12.393Z,996.79
2018-02-11T12:57:12.409Z,996.72